Time;durP1;ratioP1;P1;durP2;ratioP2;P2;SDS_P1;SDS_P2;PMS_P1;PMS_P2;Temp;Humidity;BMP_temperature;BMP_pressure;BME280_temperature;BME280_humidity;BME280_pressure;Samples;Min_cycle;Max_cycle;Signal;HPM_P1;HPM_P2
2022/07/05 00:04:06;;;;;;;0.00;0.00;;;;;;;14.56;100.00;102100.75;10504461;28;20441;-74
2022/07/05 00:09:07;;;;;;;0.00;0.00;;;;;;;14.42;100.00;102102.06;10504924;28;20114;-74
2022/07/05 00:14:09;;;;;;;0.20;0.00;;;;;;;14.26;100.00;102104.19;10504141;28;20369;-74
2022/07/05 00:19:11;;;;;;;0.10;0.10;;;;;;;14.13;100.00;102099.50;10469489;28;20052;-74
2022/07/05 00:24:12;;;;;;;0.88;0.20;;;;;;;14.06;100.00;102092.38;10503627;28;20110;-74
2022/07/05 00:29:14;;;;;;;0.00;0.00;;;;;;;13.91;100.00;102097.97;10503617;28;20044;-74
2022/07/05 00:34:16;;;;;;;0.00;0.00;;;;;;;13.76;100.00;102100.94;10503377;28;20431;-74
2022/07/05 00:39:17;;;;;;;0.00;0.00;;;;;;;13.67;100.00;102103.22;10503208;28;20098;-74
2022/07/05 00:44:30;;;;;;;0.00;0.00;;;;;;;13.58;100.00;102096.94;10485033;28;20044;-74
2022/07/05 00:49:33;;;;;;;0.00;0.00;;;;;;;13.52;100.00;102096.72;10485503;28;20053;-74
2022/07/05 00:54:36;;;;;;;0.45;0.22;;;;;;;13.32;100.00;102096.91;10503769;28;20045;-74
2022/07/05 00:59:38;;;;;;;0.20;0.20;;;;;;;13.18;100.00;102101.59;10484444;28;20068;-74
2022/07/05 01:04:41;;;;;;;0.10;0.10;;;;;;;13.15;100.00;102098.03;10484204;28;20503;-74
2022/07/05 01:09:43;;;;;;;0.35;0.10;;;;;;;13.12;100.00;102095.34;10484032;28;20044;-75
2022/07/05 01:14:45;;;;;;;2.55;0.28;;;;;;;13.00;100.00;102094.09;10483793;28;20068;-74
2022/07/05 01:19:49;;;;;;;0.10;0.08;;;;;;;12.53;100.00;102103.63;10483593;28;20139;-74
2022/07/05 01:24:51;;;;;;;0.50;0.10;;;;;;;12.61;100.00;102094.44;10483345;28;20079;-74
2022/07/05 01:29:52;;;;;;;0.20;0.08;;;;;;;12.54;100.00;102088.16;10483174;28;20545;-74
2022/07/05 01:34:54;;;;;;;0.00;0.00;;;;;;;12.30;100.00;102098.47;10482996;28;20040;-74
2022/07/05 01:39:58;;;;;;;0.32;0.30;;;;;;;12.32;100.00;102101.97;10482907;28;20480;-74
2022/07/05 01:45:00;;;;;;;0.10;0.10;;;;;;;12.16;100.00;102097.94;10500576;28;20044;-74
2022/07/05 01:50:03;;;;;;;0.10;0.10;;;;;;;11.90;100.00;102102.03;10501459;28;20048;-74
2022/07/05 01:55:05;;;;;;;0.52;0.20;;;;;;;12.05;100.00;102097.50;10483460;28;20056;-74
2022/07/05 02:00:08;;;;;;;0.25;0.00;;;;;;;11.78;100.00;102119.63;10481982;28;20040;-74
2022/07/05 02:05:14;;;;;;;0.00;0.00;;;;;;;11.64;100.00;102127.72;10499839;28;20044;-75
2022/07/05 02:10:17;;;;;;;0.00;0.00;;;;;;;11.69;100.00;102118.44;10499587;28;20131;-74
2022/07/05 02:15:19;;;;;;;0.45;0.20;;;;;;;11.62;100.00;102108.69;10482237;28;20052;-75
2022/07/05 02:20:22;;;;;;;0.20;0.17;;;;;;;11.74;100.00;102111.75;10480854;28;20087;-75
2022/07/05 02:25:24;;;;;;;0.00;0.00;;;;;;;11.66;100.00;102112.28;10481120;28;20044;-75
2022/07/05 02:30:28;;;;;;;0.03;0.03;;;;;;;11.55;100.00;102117.00;10481091;28;20075;-74
2022/07/05 02:35:30;;;;;;;0.20;0.10;;;;;;;11.59;100.00;102112.03;10482822;28;20044;-74
2022/07/05 02:40:32;;;;;;;0.10;0.03;;;;;;;11.42;100.00;102119.06;10498340;28;20514;-75
2022/07/05 02:45:37;;;;;;;0.15;0.15;;;;;;;11.27;100.00;102118.44;10501749;28;20519;-75
2022/07/05 02:50:40;;;;;;;0.00;0.00;;;;;;;11.47;100.00;102110.63;10502604;28;20041;-74
2022/07/05 02:55:43;;;;;;;0.35;0.30;;;;;;;11.39;100.00;102112.91;10489091;28;20050;-75
2022/07/05 03:00:47;;;;;;;0.55;0.43;;;;;;;11.30;100.00;102121.13;10498150;28;20040;-75
2022/07/05 03:05:51;;;;;;;0.25;0.08;;;;;;;11.23;100.00;102126.84;10480672;28;20052;-74
2022/07/05 03:10:53;;;;;;;0.25;0.10;;;;;;;11.19;100.00;102123.25;10480067;28;20075;-75
2022/07/05 03:15:55;;;;;;;0.47;0.30;;;;;;;11.11;100.00;102140.97;10480042;28;20059;-75
2022/07/05 03:20:58;;;;;;;0.10;0.05;;;;;;;11.11;100.00;102135.81;10480040;28;20048;-74
2022/07/05 03:26:35;;;;;;;0.10;0.10;;;;;;;11.01;100.00;102141.38;10463702;28;20075;-75
2022/07/05 03:31:37;;;;;;;0.10;0.10;;;;;;;10.92;100.00;102141.88;10479615;28;20072;-75
2022/07/05 03:36:40;;;;;;;0.20;0.03;;;;;;;10.93;100.00;102143.63;10486861;28;20048;-74
2022/07/05 03:41:48;;;;;;;0.20;0.20;;;;;;;10.97;100.00;102142.06;10487529;28;20131;-74
2022/07/05 03:46:54;;;;;;;0.20;0.10;;;;;;;10.82;100.00;102144.84;10487307;28;20457;-75
2022/07/05 03:51:57;;;;;;;0.10;0.10;;;;;;;10.77;100.00;102142.03;10487011;28;20068;-74
2022/07/05 03:56:59;;;;;;;0.20;0.20;;;;;;;10.81;100.00;102142.19;10488737;28;20044;-74
2022/07/05 04:02:01;;;;;;;0.00;0.00;;;;;;;11.01;100.00;102159.44;10486608;28;20041;-75
2022/07/05 04:07:03;;;;;;;0.00;0.00;;;;;;;11.01;100.00;102156.84;10486544;28;20059;-74
2022/07/05 04:12:07;;;;;;;0.08;0.00;;;;;;;11.14;100.00;102154.78;10486699;28;20496;-74
2022/07/05 04:17:11;;;;;;;0.13;0.10;;;;;;;11.35;100.00;102168.66;10486112;28;20048;-75
2022/07/05 04:22:14;;;;;;;0.17;0.17;;;;;;;11.42;100.00;102174.94;10485799;28;20045;-75
2022/07/05 04:27:16;;;;;;;0.20;0.20;;;;;;;11.71;100.00;102177.88;10485820;28;20052;-75
2022/07/05 04:32:18;;;;;;;0.57;0.40;;;;;;;11.99;100.00;102168.72;10469045;28;20454;-74
2022/07/05 04:37:19;;;;;;;0.60;0.30;;;;;;;11.95;100.00;102162.50;10485472;28;20076;-74
2022/07/05 04:42:22;;;;;;;0.63;0.40;;;;;;;12.06;100.00;102173.31;10485344;28;20036;-74
2022/07/05 04:47:25;;;;;;;1.00;0.65;;;;;;;12.38;100.00;102169.41;10484568;28;20048;-74
2022/07/05 04:52:27;;;;;;;0.55;0.50;;;;;;;12.90;100.00;102179.97;10486544;28;20047;-74
2022/07/05 04:57:37;;;;;;;0.10;0.10;;;;;;;13.19;100.00;102177.53;10484632;28;20048;-74
2022/07/05 05:02:38;;;;;;;0.33;0.30;;;;;;;13.45;100.00;102180.19;10502302;28;20098;-74
2022/07/05 05:07:44;;;;;;;0.70;0.52;;;;;;;13.58;100.00;102166.84;10502255;28;20438;-75
2022/07/05 05:12:48;;;;;;;2.47;0.93;;;;;;;13.66;100.00;102164.50;10484557;28;20093;-74
2022/07/05 05:17:49;;;;;;;0.45;0.25;;;;;;;13.96;100.00;102169.78;10501739;28;20115;-74
2022/07/05 05:22:51;;;;;;;0.20;0.20;;;;;;;14.22;100.00;102177.53;10501375;28;20044;-75
2022/07/05 05:27:53;;;;;;;0.30;0.20;;;;;;;14.39;100.00;102174.59;10501346;28;20094;-73
2022/07/05 05:32:54;;;;;;;1.33;0.57;;;;;;;14.57;100.00;102179.44;10483157;28;20049;-74
2022/07/05 05:37:56;;;;;;;0.95;0.30;;;;;;;14.72;100.00;102179.94;10500833;28;20053;-74
2022/07/05 05:42:58;;;;;;;1.08;0.52;;;;;;;14.81;100.00;102192.28;10500589;28;20045;-75
2022/07/05 05:48:00;;;;;;;1.38;0.60;;;;;;;14.76;100.00;102191.28;10482483;28;20105;-75
2022/07/05 05:53:02;;;;;;;0.28;0.28;;;;;;;15.06;100.00;102187.81;10482321;28;20098;-75
2022/07/05 05:58:15;;;;;;;1.23;0.73;;;;;;;15.22;100.00;102195.19;10500407;28;20089;-76
2022/07/05 06:03:18;;;;;;;0.95;0.80;;;;;;;15.62;100.00;102197.06;10499791;28;20094;-75
2022/07/05 06:08:20;;;;;;;0.70;0.40;;;;;;;15.68;100.00;102187.72;10500560;28;20044;-74
2022/07/05 06:13:22;;;;;;;0.82;0.65;;;;;;;16.05;100.00;102185.16;10481842;28;20127;-75
2022/07/05 06:18:24;;;;;;;0.20;0.20;;;;;;;16.59;100.00;102180.28;10499282;28;20040;-75
2022/07/05 06:23:26;;;;;;;0.50;0.30;;;;;;;16.86;100.00;102181.72;10498943;28;20442;-75
2022/07/05 06:28:27;;;;;;;0.20;0.20;;;;;;;16.86;100.00;102184.31;10500126;28;20053;-75
2022/07/05 06:33:29;;;;;;;0.57;0.17;;;;;;;17.08;100.00;102178.75;10498831;28;20047;-75
2022/07/05 06:38:31;;;;;;;0.15;0.10;;;;;;;17.33;100.00;102189.59;10498609;28;20053;-75
2022/07/05 06:43:32;;;;;;;0.05;0.05;;;;;;;17.69;100.00;102193.69;10498490;28;20048;-74
2022/07/05 06:48:56;;;;;;;0.52;0.20;;;;;;;17.81;100.00;102184.34;10412388;28;20053;-75
2022/07/05 06:53:58;;;;;;;0.10;0.10;;;;;;;17.75;100.00;102191.22;10411391;28;20061;-75
2022/07/05 06:59:19;;;;;;;0.95;0.52;;;;;;;18.47;99.38;102192.31;10412981;28;20100;-74
2022/07/05 07:04:41;;;;;;;0.00;0.00;;;;;;;18.98;100.00;102193.84;10411297;28;20521;-74
2022/07/05 07:10:04;;;;;;;0.25;0.20;;;;;;;18.57;91.22;102186.38;10422313;28;20053;-75
2022/07/05 07:15:06;;;;;;;0.80;0.55;;;;;;;18.80;87.98;102191.00;10408839;28;20385;-74
2022/07/05 07:20:08;;;;;;;0.32;0.32;;;;;;;18.77;89.49;102190.94;10460874;28;20132;-75
2022/07/05 07:25:11;;;;;;;1.88;0.68;;;;;;;19.22;87.60;102194.97;10469864;28;20037;-74
2022/07/05 07:37:13;;;;;;;0.32;0.32;;;;;;;19.57;87.06;102197.06;10470722;28;20033;-75
2022/07/05 07:42:15;;;;;;;0.57;0.50;;;;;;;20.42;77.46;102191.59;10469688;28;20075;-75
2022/07/05 07:47:16;;;;;;;0.85;0.70;;;;;;;20.42;84.05;102196.84;10469588;28;20106;-75
2022/07/05 07:52:18;;;;;;;1.45;0.65;;;;;;;21.20;75.32;102201.53;10469876;28;20040;-75
2022/07/05 07:57:20;;;;;;;0.40;0.40;;;;;;;20.09;73.85;102203.59;10451417;28;20374;-74
2022/07/05 08:02:22;;;;;;;0.52;0.40;;;;;;;22.60;76.98;102191.00;10469302;28;20048;-75
2022/07/05 08:07:24;;;;;;;0.30;0.20;;;;;;;21.99;68.84;102198.13;10469396;28;20037;-73
2022/07/05 08:12:28;;;;;;;0.20;0.20;;;;;;;20.84;65.83;102200.53;10451840;28;20041;-74
2022/07/05 08:17:30;;;;;;;0.05;0.03;;;;;;;20.43;66.63;102198.59;10469160;28;20041;-75
2022/07/05 08:22:32;;;;;;;0.38;0.35;;;;;;;21.45;74.88;102196.31;10427303;28;20045;-74
2022/07/05 08:27:34;;;;;;;0.68;0.30;;;;;;;22.02;63.38;102198.09;10462657;28;20447;-74
2022/07/05 08:32:36;;;;;;;0.17;0.10;;;;;;;20.77;62.36;102207.50;10462271;28;20116;-74
2022/07/05 08:37:37;;;;;;;0.20;0.20;;;;;;;20.95;64.87;102204.97;10464290;28;20067;-74
2022/07/05 08:42:39;;;;;;;0.10;0.10;;;;;;;21.35;63.27;102194.56;10503550;28;20051;-74
2022/07/05 08:47:45;;;;;;;0.80;0.13;;;;;;;21.77;65.20;102190.25;10504343;28;20392;-74
2022/07/05 08:52:47;;;;;;;0.40;0.20;;;;;;;21.97;60.69;102189.34;10455758;28;20049;-76
2022/07/05 08:57:49;;;;;;;0.30;0.28;;;;;;;21.48;54.28;102201.56;10420261;28;20095;-75
2022/07/05 09:02:52;;;;;;;0.20;0.20;;;;;;;21.77;58.11;102187.63;10420315;28;20099;-75
2022/07/05 09:08:00;;;;;;;4.70;0.60;;;;;;;22.31;61.46;102186.66;10420074;28;20107;-74
2022/07/05 09:13:02;;;;;;;0.00;0.00;;;;;;;22.55;55.42;102187.50;10419583;28;20091;-75
2022/07/05 09:18:03;;;;;;;0.28;0.22;;;;;;;23.22;57.13;102190.69;10419903;28;20049;-75
2022/07/05 09:23:05;;;;;;;0.13;0.03;;;;;;;22.92;55.55;102192.56;10401132;28;20104;-74
2022/07/05 09:28:07;;;;;;;0.10;0.10;;;;;;;21.90;49.78;102190.25;10419018;28;20072;-75
2022/07/05 09:33:11;;;;;;;0.30;0.22;;;;;;;21.32;52.16;102199.81;10417588;28;20048;-75
2022/07/05 09:38:20;;;;;;;0.00;0.00;;;;;;;21.16;51.52;102205.03;10459764;28;20067;-75
2022/07/05 09:43:24;;;;;;;0.00;0.00;;;;;;;21.37;51.63;102204.16;10459890;28;20131;-75
2022/07/05 09:48:27;;;;;;;0.45;0.10;;;;;;;20.89;53.86;102206.66;10460226;28;20049;-74
2022/07/05 09:53:50;;;;;;;0.80;0.55;;;;;;;20.61;63.95;102193.44;10459295;28;20040;-74
2022/07/05 09:59:21;;;;;;;0.00;0.00;;;;;;;21.27;60.96;102198.91;10459084;28;20045;-75
2022/07/05 10:04:24;;;;;;;0.28;0.10;;;;;;;21.31;56.98;102205.91;10458476;28;20051;-75
2022/07/05 10:09:26;;;;;;;0.45;0.30;;;;;;;21.36;59.62;102202.44;10458645;28;20526;-74
2022/07/05 10:14:28;;;;;;;0.10;0.10;;;;;;;21.23;54.83;102203.25;10458112;28;20037;-75
2022/07/05 10:19:35;;;;;;;0.10;0.10;;;;;;;22.39;52.08;102199.81;10441334;28;20045;-76
2022/07/05 10:24:38;;;;;;;0.00;0.00;;;;;;;22.39;51.19;102195.41;10439883;28;20489;-76
2022/07/05 10:29:40;;;;;;;0.28;0.10;;;;;;;21.56;49.21;102199.81;10457693;28;20119;-73
2022/07/05 10:34:46;;;;;;;0.00;0.00;;;;;;;23.22;48.76;102196.84;10457455;28;20484;-75
2022/07/05 10:40:01;;;;;;;0.00;0.00;;;;;;;22.53;48.20;102183.97;10457453;28;20048;-75
2022/07/05 10:45:21;;;;;;;0.38;0.30;;;;;;;22.91;47.45;102173.31;10457489;28;20476;-75
2022/07/05 10:50:41;;;;;;;0.10;0.10;;;;;;;23.83;52.03;102177.94;10457954;28;20053;-74
2022/07/05 10:55:48;;;;;;;0.10;0.10;;;;;;;24.35;46.82;102180.06;10416310;28;20044;-74
2022/07/05 11:01:12;;;;;;;0.10;0.10;;;;;;;23.06;45.72;102184.63;10417017;28;20049;-75
2022/07/05 11:06:41;;;;;;;0.20;0.20;;;;;;;23.72;49.67;102184.16;10431497;28;20128;-75
2022/07/05 11:11:47;;;;;;;2.30;0.30;;;;;;;23.77;49.16;102177.13;10454252;28;20056;-75
2022/07/05 11:17:13;;;;;;;0.00;0.00;;;;;;;23.61;46.45;102172.88;10457495;28;20049;-75
2022/07/05 11:22:36;;;;;;;0.05;0.05;;;;;;;24.18;48.77;102158.28;10439633;28;20145;-75
2022/07/05 11:28:11;;;;;;;0.10;0.10;;;;;;;23.56;48.41;102177.31;10456857;28;20114;-75
2022/07/05 11:33:35;;;;;;;0.00;0.00;;;;;;;23.69;47.30;102160.53;10457746;28;20041;-75
2022/07/05 11:39:17;;;;;;;0.10;0.10;;;;;;;23.77;46.67;102173.59;10457376;28;20056;-74
2022/07/05 11:44:19;;;;;;;0.30;0.30;;;;;;;22.64;47.80;102176.94;10458727;28;20033;-76
2022/07/05 11:49:23;;;;;;;0.15;0.15;;;;;;;22.73;46.88;102168.16;10457209;28;20045;-75
2022/07/05 11:54:32;;;;;;;0.20;0.10;;;;;;;22.90;52.65;102157.53;10458569;28;20125;-74
2022/07/05 11:59:35;;;;;;;0.00;0.00;;;;;;;22.05;53.13;102166.59;10463483;28;20045;-74
2022/07/05 12:04:54;;;;;;;0.10;0.10;;;;;;;22.05;52.60;102156.13;10467014;28;20098;-74
2022/07/05 12:15:19;;;;;;;0.47;0.25;;;;;;;22.54;56.14;102148.97;10464330;28;20120;-74
2022/07/05 12:20:23;;;;;;;0.32;0.20;;;;;;;21.90;59.52;102150.88;10463340;28;20052;-75
2022/07/05 12:25:25;;;;;;;0.00;0.00;;;;;;;21.54;59.06;102158.75;10463364;28;20056;-74
2022/07/05 12:30:28;;;;;;;0.10;0.10;;;;;;;21.32;60.41;102163.13;10462376;28;20513;-73
2022/07/05 12:35:40;;;;;;;0.00;0.00;;;;;;;20.96;60.24;102162.19;10462671;28;20041;-74
2022/07/05 12:40:44;;;;;;;0.20;0.15;;;;;;;20.91;64.22;102168.25;10462688;28;20504;-74
2022/07/05 12:46:06;;;;;;;0.75;0.43;;;;;;;20.79;59.68;102163.00;10461724;28;20111;-74
2022/07/05 12:51:09;;;;;;;0.20;0.20;;;;;;;21.24;59.10;102160.47;10461713;28;20083;-74
2022/07/05 13:02:04;;;;;;;0.10;0.10;;;;;;;23.76;62.95;102149.06;10460858;28;20037;-73
2022/07/05 13:07:06;;;;;;;0.45;0.45;;;;;;;22.77;59.01;102152.38;10462234;28;20049;-75
2022/07/05 13:12:29;;;;;;;0.30;0.20;;;;;;;22.10;52.20;102142.97;10460235;28;20400;-74
2022/07/05 13:17:30;;;;;;;0.25;0.20;;;;;;;22.11;54.32;102149.97;10459385;28;20056;-75
2022/07/05 13:22:32;;;;;;;0.20;0.20;;;;;;;22.27;58.55;102150.81;10460428;28;20041;-75
2022/07/05 13:27:34;;;;;;;0.28;0.20;;;;;;;22.80;55.92;102155.00;10461800;28;20484;-75
2022/07/05 13:32:36;;;;;;;0.20;0.10;;;;;;;22.53;57.28;102157.72;10463647;28;20040;-76
2022/07/05 13:37:38;;;;;;;0.10;0.10;;;;;;;23.04;54.00;102153.09;10474432;28;20049;-75
2022/07/05 13:42:39;;;;;;;0.10;0.10;;;;;;;22.48;53.08;102147.28;10478148;28;20041;-75
2022/07/05 13:47:41;;;;;;;0.15;0.15;;;;;;;21.83;56.84;102156.16;10472483;28;20055;-75
2022/07/05 13:52:43;;;;;;;0.00;0.00;;;;;;;22.65;55.62;102155.06;10481048;28;20067;-75
2022/07/05 13:57:45;;;;;;;0.28;0.28;;;;;;;22.58;53.26;102151.59;10483477;28;20049;-75
2022/07/05 14:02:47;;;;;;;0.10;0.10;;;;;;;21.81;55.21;102157.91;10483437;28;20131;-75
2022/07/05 14:07:49;;;;;;;0.00;0.00;;;;;;;21.67;55.98;102170.16;10482530;28;20052;-75
2022/07/05 14:12:50;;;;;;;0.00;0.00;;;;;;;22.66;60.69;102160.31;10483491;28;20480;-75
2022/07/05 14:17:52;;;;;;;1.38;0.68;;;;;;;21.74;56.42;102165.78;10478058;28;20052;-75
2022/07/05 14:22:54;;;;;;;0.00;0.00;;;;;;;21.99;59.97;102174.50;10484222;28;20041;-76
2022/07/05 14:27:55;;;;;;;0.00;0.00;;;;;;;21.67;58.89;102170.16;10482746;28;20542;-77
2022/07/05 14:32:57;;;;;;;0.43;0.20;;;;;;;21.57;59.72;102174.53;10483013;28;20049;-76
2022/07/05 14:37:59;;;;;;;0.00;0.00;;;;;;;21.46;55.94;102182.34;10477273;28;20067;-75
2022/07/05 14:43:01;;;;;;;0.00;0.00;;;;;;;21.62;57.97;102188.50;10475823;28;20044;-75
2022/07/05 14:48:03;;;;;;;0.00;0.00;;;;;;;21.45;54.60;102185.84;10455763;28;20044;-76
2022/07/05 14:53:08;;;;;;;0.00;0.00;;;;;;;21.16;55.92;102193.63;10460155;28;20079;-76
2022/07/05 14:58:09;;;;;;;0.10;0.10;;;;;;;21.05;58.98;102196.25;10454169;28;20447;-75
2022/07/05 15:03:11;;;;;;;0.00;0.00;;;;;;;20.94;59.90;102192.72;10464024;28;20496;-74
2022/07/05 15:08:13;;;;;;;0.10;0.10;;;;;;;20.73;57.16;102195.25;10440481;28;20049;-75
2022/07/05 15:13:14;;;;;;;0.00;0.00;;;;;;;21.55;60.90;102178.84;10440156;28;20055;-74
2022/07/05 15:18:17;;;;;;;0.10;0.10;;;;;;;21.19;58.27;102178.81;10459418;28;20056;-75
2022/07/05 15:23:20;;;;;;;0.00;0.00;;;;;;;21.67;59.49;102175.38;10457749;28;20049;-74
2022/07/05 15:28:22;;;;;;;0.00;0.00;;;;;;;21.95;59.70;102170.09;10461531;28;20078;-74
2022/07/05 15:33:28;;;;;;;0.10;0.10;;;;;;;21.02;56.18;102185.78;10471406;28;20045;-75
2022/07/05 15:38:33;;;;;;;0.00;0.00;;;;;;;21.37;58.73;102182.34;10450410;28;20055;-75
2022/07/05 15:43:34;;;;;;;0.00;0.00;;;;;;;21.50;55.87;102178.84;10467473;28;20044;-75
2022/07/05 15:48:36;;;;;;;0.00;0.00;;;;;;;21.77;55.39;102176.25;10470124;28;20484;-75
2022/07/05 15:53:38;;;;;;;0.00;0.00;;;;;;;21.29;57.74;102176.19;10451226;28;20045;-75
2022/07/05 15:58:41;;;;;;;0.00;0.00;;;;;;;21.21;60.46;102178.81;10466605;28;20420;-75
2022/07/05 16:03:42;;;;;;;0.45;0.25;;;;;;;21.49;53.71;102184.94;10463715;28;20044;-75
2022/07/05 16:08:44;;;;;;;0.13;0.08;;;;;;;20.80;55.51;102190.03;10450104;28;20045;-75
2022/07/05 16:13:46;;;;;;;0.00;0.00;;;;;;;20.63;59.85;102187.34;10464256;28;20045;-75
2022/07/05 16:18:48;;;;;;;0.22;0.10;;;;;;;20.54;57.29;102198.66;10464703;28;20045;-75
2022/07/05 16:23:53;;;;;;;0.00;0.00;;;;;;;20.53;54.38;102205.59;10464579;28;20076;-75
2022/07/05 16:28:54;;;;;;;0.00;0.00;;;;;;;20.19;53.54;102202.81;10449331;28;20049;-74
2022/07/05 16:33:56;;;;;;;0.13;0.13;;;;;;;20.05;55.50;102209.69;10466630;28;20041;-75
2022/07/05 16:38:58;;;;;;;0.15;0.15;;;;;;;20.01;55.01;102210.50;10464354;28;20045;-75
2022/07/05 16:44:06;;;;;;;0.00;0.00;;;;;;;20.07;54.00;102202.69;10463896;28;20502;-75
2022/07/05 16:49:07;;;;;;;0.00;0.00;;;;;;;19.99;55.97;102204.41;10463658;28;20045;-76
2022/07/05 16:54:09;;;;;;;0.10;0.10;;;;;;;20.12;55.09;102203.63;10462975;28;20107;-74
2022/07/05 16:59:11;;;;;;;0.00;0.00;;;;;;;20.13;55.05;102206.25;10463659;28;20041;-75
2022/07/05 17:04:12;;;;;;;0.00;0.00;;;;;;;20.32;55.24;102210.72;10462416;28;20094;-75
2022/07/05 17:09:14;;;;;;;0.00;0.00;;;;;;;19.86;58.85;102212.16;10464046;28;20049;-76
2022/07/05 17:14:15;;;;;;;0.10;0.10;;;;;;;20.01;59.25;102213.13;10461809;28;20048;-75
2022/07/05 17:19:18;;;;;;;0.00;0.00;;;;;;;20.34;56.61;102206.38;10461064;28;20044;-75
2022/07/05 17:24:20;;;;;;;0.68;0.68;;;;;;;19.95;58.30;102217.47;10461336;28;20520;-75
2022/07/05 17:29:46;;;;;;;0.10;0.10;;;;;;;19.90;59.45;102221.78;10461763;28;20045;-74
2022/07/05 17:34:48;;;;;;;0.15;0.08;;;;;;;20.27;61.78;102216.81;10464030;28;20484;-75
2022/07/05 17:39:49;;;;;;;0.38;0.15;;;;;;;19.94;59.00;102239.25;10462854;28;20385;-73
2022/07/05 17:44:51;;;;;;;0.20;0.10;;;;;;;19.93;60.67;102226.16;10463442;28;20090;-75
2022/07/05 17:49:53;;;;;;;2.05;0.80;;;;;;;19.75;65.46;102234.69;10461771;28;20488;-75
2022/07/05 17:54:59;;;;;;;0.00;0.00;;;;;;;19.45;67.57;102244.84;10461495;28;20477;-74
2022/07/05 18:00:01;;;;;;;0.00;0.00;;;;;;;19.29;68.83;102243.81;10463516;28;20044;-74
2022/07/05 18:05:12;;;;;;;0.25;0.20;;;;;;;18.96;70.06;102253.00;10462670;28;20045;-74
2022/07/05 18:10:14;;;;;;;0.20;0.10;;;;;;;18.79;69.88;102259.75;10445458;28;20053;-74
2022/07/05 18:15:15;;;;;;;1.10;0.43;;;;;;;18.50;70.21;102260.22;10462969;28;20114;-74
2022/07/05 18:20:17;;;;;;;1.75;0.32;;;;;;;18.33;70.54;102267.75;10466000;28;20044;-74
2022/07/05 18:25:18;;;;;;;0.00;0.00;;;;;;;18.01;72.33;102271.59;10459791;28;20411;-74
2022/07/05 18:30:20;;;;;;;0.00;0.00;;;;;;;18.14;70.64;102275.31;10442535;28;20468;-74
2022/07/05 18:35:22;;;;;;;0.00;0.00;;;;;;;18.20;69.90;102277.16;10443932;28;20049;-75
2022/07/05 18:40:23;;;;;;;0.00;0.00;;;;;;;18.17;70.56;102290.13;10460645;28;20484;-75
2022/07/05 18:45:25;;;;;;;0.00;0.00;;;;;;;18.00;71.62;102285.50;10459509;28;20468;-74
2022/07/05 18:50:27;;;;;;;0.00;0.00;;;;;;;18.03;74.52;102287.28;10457995;28;20484;-75
2022/07/05 18:55:28;;;;;;;0.22;0.15;;;;;;;17.73;75.68;102297.16;10457565;28;20045;-75
2022/07/05 19:00:30;;;;;;;0.10;0.10;;;;;;;17.69;74.43;102295.34;10458694;28;20382;-75
2022/07/05 19:05:32;;;;;;;0.00;0.00;;;;;;;17.52;76.67;102296.75;10458012;28;20041;-75
2022/07/05 19:13:40;;;;;;;0.43;0.15;;;;;;;17.24;77.14;102301.41;10457057;28;20484;-75
2022/07/05 19:16:00;;;;;;;0.77;0.05;;;;;;;16.97;78.33;102297.38;10456594;28;20489;-74
2022/07/05 19:21:02;;;;;;;0.00;0.00;;;;;;;16.89;77.75;102309.31;10439587;28;20071;-75
2022/07/05 19:26:12;;;;;;;0.30;0.30;;;;;;;16.85;78.19;102303.16;10440768;28;20133;-75
2022/07/05 19:31:16;;;;;;;0.00;0.00;;;;;;;16.55;80.54;102313.75;10456199;28;20400;-74
2022/07/05 19:36:24;;;;;;;0.00;0.00;;;;;;;16.41;83.13;102321.22;10456747;28;20043;-75
2022/07/05 19:41:25;;;;;;;0.00;0.00;;;;;;;16.38;85.42;102322.03;10456097;28;20103;-75
2022/07/05 19:46:27;;;;;;;0.00;0.00;;;;;;;16.31;86.08;102330.53;10455798;28;20045;-75
2022/07/05 19:51:29;;;;;;;0.75;0.38;;;;;;;16.36;87.56;102339.31;10455833;28;20037;-75
2022/07/05 19:56:30;;;;;;;0.00;0.00;;;;;;;16.09;88.58;102340.38;10455691;28;20056;-76
2022/07/05 20:01:35;;;;;;;0.00;0.00;;;;;;;16.09;88.48;102350.78;10456205;28;20048;-77
2022/07/05 20:06:38;;;;;;;0.20;0.00;;;;;;;15.96;93.51;102353.91;10455450;28;20127;-76
2022/07/05 20:11:40;;;;;;;0.00;0.00;;;;;;;15.86;93.75;102364.03;10455419;28;20059;-76
2022/07/05 20:17:01;;;;;;;0.00;0.00;;;;;;;15.61;96.75;102366.75;10459691;28;20468;-76
2022/07/05 20:22:10;;;;;;;1.50;0.13;;;;;;;15.33;100.00;102376.34;10444980;28;20057;-76
2022/07/05 20:27:12;;;;;;;0.00;0.00;;;;;;;15.29;100.00;102379.69;10463762;28;20044;-75
2022/07/05 20:32:13;;;;;;;0.00;0.00;;;;;;;15.14;100.00;102382.69;10444309;28;20555;-75
2022/07/05 20:37:15;;;;;;;0.00;0.00;;;;;;;15.02;100.00;102385.78;10462216;28;20041;-76
2022/07/05 20:42:18;;;;;;;0.00;0.00;;;;;;;14.92;100.00;102389.81;10461957;28;20037;-76
2022/07/05 20:47:20;;;;;;;0.00;0.00;;;;;;;14.85;100.00;102399.13;10444597;28;20488;-76
2022/07/05 20:52:22;;;;;;;0.00;0.00;;;;;;;14.77;100.00;102395.41;10461615;28;20496;-76
2022/07/05 20:57:24;;;;;;;0.10;0.10;;;;;;;14.46;100.00;102404.72;10461375;28;20474;-76
2022/07/05 21:02:26;;;;;;;0.00;0.00;;;;;;;14.19;100.00;102418.47;10461199;28;20051;-75
2022/07/05 21:07:27;;;;;;;0.10;0.03;;;;;;;14.06;100.00;102418.88;10460989;28;20060;-76
2022/07/05 21:12:30;;;;;;;0.10;0.10;;;;;;;13.81;100.00;102425.78;10442940;28;20057;-77
2022/07/05 21:17:34;;;;;;;0.00;0.00;;;;;;;13.71;100.00;102432.28;10442756;28;20512;-76
2022/07/05 21:22:36;;;;;;;0.00;0.00;;;;;;;13.60;100.00;102434.47;10460379;28;20052;-76
2022/07/05 21:27:37;;;;;;;0.00;0.00;;;;;;;13.68;100.00;102434.78;10459921;28;20041;-76
2022/07/05 21:32:39;;;;;;;0.10;0.10;;;;;;;13.68;100.00;102441.66;10461253;28;20041;-77
2022/07/05 21:37:41;;;;;;;1.88;0.10;;;;;;;13.52;100.00;102445.38;10459828;28;20436;-75
2022/07/05 21:42:43;;;;;;;0.00;0.00;;;;;;;13.41;100.00;102447.56;10460112;28;20492;-76
2022/07/05 21:47:44;;;;;;;0.10;0.10;;;;;;;13.32;100.00;102448.94;10459976;28;20067;-75
2022/07/05 21:52:46;;;;;;;1.17;0.35;;;;;;;13.16;100.00;102459.47;10441584;28;20048;-77
2022/07/05 21:57:47;;;;;;;0.22;0.10;;;;;;;13.04;100.00;102466.75;10424704;28;20144;-76
2022/07/05 22:08:09;;;;;;;0.20;0.10;;;;;;;12.97;100.00;102471.69;10459639;28;20095;-76
2022/07/05 22:13:11;;;;;;;0.00;0.00;;;;;;;12.65;100.00;102471.22;10458527;28;20098;-76
2022/07/05 22:18:12;;;;;;;0.03;0.03;;;;;;;12.68;100.00;102468.78;10458233;28;20053;-77
2022/07/05 22:23:14;;;;;;;0.17;0.17;;;;;;;12.43;100.00;102474.59;10457930;28;20542;-76
2022/07/05 22:28:16;;;;;;;0.00;0.00;;;;;;;12.34;100.00;102467.31;10457699;28;20049;-76
2022/07/05 22:33:17;;;;;;;0.05;0.05;;;;;;;12.25;100.00;102479.81;10457776;28;20043;-76
2022/07/05 22:38:19;;;;;;;0.32;0.10;;;;;;;12.19;100.00;102476.97;10456988;28;20045;-76
2022/07/05 22:43:21;;;;;;;0.10;0.08;;;;;;;12.16;100.00;102477.72;10439805;28;20041;-76
2022/07/05 22:48:23;;;;;;;0.00;0.00;;;;;;;12.28;100.00;102479.97;10458395;28;20048;-76
2022/07/05 22:53:25;;;;;;;0.00;0.00;;;;;;;12.30;100.00;102478.34;10457071;28;20124;-76
2022/07/05 22:58:27;;;;;;;0.10;0.10;;;;;;;12.09;100.00;102472.22;10456941;28;20099;-75
2022/07/05 23:03:34;;;;;;;1.77;0.10;;;;;;;11.75;100.00;102485.31;10456750;28;20048;-76
2022/07/05 23:08:37;;;;;;;0.22;0.20;;;;;;;12.20;100.00;102473.56;10457956;28;20037;-76
2022/07/05 23:13:38;;;;;;;0.32;0.30;;;;;;;12.31;100.00;102467.19;10456549;28;20040;-76
2022/07/05 23:18:40;;;;;;;0.20;0.00;;;;;;;12.36;100.00;102468.25;10438843;28;20048;-76
2022/07/05 23:24:55;;;;;;;0.55;0.22;;;;;;;12.37;100.00;102466.56;10456321;28;20084;-76
2022/07/05 23:29:03;;;;;;;0.00;0.00;;;;;;;12.52;100.00;102472.38;10438219;28;20053;-76
2022/07/05 23:34:05;;;;;;;0.08;0.03;;;;;;;12.70;100.00;102477.47;10457368;28;20091;-75
2022/07/05 23:39:08;;;;;;;0.20;0.00;;;;;;;12.64;100.00;102477.19;10456163;28;20053;-76